sensor_id;sensor_type;location;lat;lon;timestamp;P1;durP1;ratioP1;P2;durP2;ratioP2
47021;SDS011;32779;52.264;6.154;2023-04-24T00:00:34;1.75;;;1.00;;
47021;SDS011;32779;52.264;6.154;2023-04-24T00:05:28;1.58;;;1.48;;
47021;SDS011;32779;52.264;6.154;2023-04-24T00:07:53;2.97;;;1.50;;
47021;SDS011;32779;52.264;6.154;2023-04-24T00:10:20;2.00;;;1.50;;
47021;SDS011;32779;52.264;6.154;2023-04-24T00:12:45;1.73;;;1.63;;
47021;SDS011;32779;52.264;6.154;2023-04-24T00:15:11;2.17;;;2.05;;
47021;SDS011;32779;52.264;6.154;2023-04-24T00:17:37;2.22;;;1.85;;
47021;SDS011;32779;52.264;6.154;2023-04-24T00:20:03;2.78;;;1.90;;
47021;SDS011;32779;52.264;6.154;2023-04-24T00:22:30;2.03;;;1.90;;
47021;SDS011;32779;52.264;6.154;2023-04-24T00:24:56;2.00;;;1.90;;
47021;SDS011;32779;52.264;6.154;2023-04-24T00:27:22;5.45;;;2.40;;
47021;SDS011;32779;52.264;6.154;2023-04-24T00:29:48;3.17;;;2.10;;
47021;SDS011;32779;52.264;6.154;2023-04-24T00:32:14;5.30;;;2.55;;
47021;SDS011;32779;52.264;6.154;2023-04-24T00:34:40;2.92;;;2.40;;
47021;SDS011;32779;52.264;6.154;2023-04-24T00:37:06;3.45;;;2.50;;
47021;SDS011;32779;52.264;6.154;2023-04-24T00:39:32;3.00;;;2.70;;
47021;SDS011;32779;52.264;6.154;2023-04-24T00:41:57;4.28;;;2.65;;
47021;SDS011;32779;52.264;6.154;2023-04-24T00:46:49;3.83;;;3.45;;
47021;SDS011;32779;52.264;6.154;2023-04-24T00:49:19;7.65;;;3.70;;
47021;SDS011;32779;52.264;6.154;2023-04-24T00:51:45;3.55;;;3.25;;
47021;SDS011;32779;52.264;6.154;2023-04-24T00:54:12;3.47;;;3.08;;
47021;SDS011;32779;52.264;6.154;2023-04-24T00:56:38;3.38;;;2.95;;
47021;SDS011;32779;52.264;6.154;2023-04-24T00:59:05;3.08;;;2.65;;
47021;SDS011;32779;52.264;6.154;2023-04-24T01:01:31;5.00;;;3.28;;
47021;SDS011;32779;52.264;6.154;2023-04-24T01:06:23;3.50;;;2.72;;
47021;SDS011;32779;52.264;6.154;2023-04-24T01:08:53;4.32;;;2.78;;
47021;SDS011;32779;52.264;6.154;2023-04-24T01:11:20;3.38;;;2.95;;
47021;SDS011;32779;52.264;6.154;2023-04-24T01:13:47;3.92;;;2.90;;
47021;SDS011;32779;52.264;6.154;2023-04-24T01:18:39;3.10;;;2.80;;
47021;SDS011;32779;52.264;6.154;2023-04-24T01:21:06;5.20;;;3.35;;
47021;SDS011;32779;52.264;6.154;2023-04-24T01:23:33;3.88;;;3.28;;
47021;SDS011;32779;52.264;6.154;2023-04-24T01:28:25;4.63;;;2.90;;
47021;SDS011;32779;52.264;6.154;2023-04-24T01:30:51;3.13;;;2.75;;
47021;SDS011;32779;52.264;6.154;2023-04-24T01:33:17;3.35;;;2.83;;
47021;SDS011;32779;52.264;6.154;2023-04-24T01:35:43;4.18;;;3.35;;
47021;SDS011;32779;52.264;6.154;2023-04-24T01:40:35;3.55;;;2.70;;
47021;SDS011;32779;52.264;6.154;2023-04-24T01:43:01;3.67;;;3.28;;
47021;SDS011;32779;52.264;6.154;2023-04-24T01:47:53;3.40;;;2.75;;
47021;SDS011;32779;52.264;6.154;2023-04-24T01:50:18;4.75;;;2.92;;
47021;SDS011;32779;52.264;6.154;2023-04-24T01:52:44;3.30;;;3.00;;
47021;SDS011;32779;52.264;6.154;2023-04-24T01:55:09;5.13;;;2.88;;
47021;SDS011;32779;52.264;6.154;2023-04-24T01:57:35;3.35;;;3.00;;
47021;SDS011;32779;52.264;6.154;2023-04-24T02:00:01;3.80;;;3.50;;
47021;SDS011;32779;52.264;6.154;2023-04-24T02:02:29;3.90;;;3.42;;
47021;SDS011;32779;52.264;6.154;2023-04-24T02:04:55;4.75;;;3.80;;
47021;SDS011;32779;52.264;6.154;2023-04-24T02:09:47;4.80;;;4.18;;
47021;SDS011;32779;52.264;6.154;2023-04-24T02:12:12;5.05;;;4.20;;
47021;SDS011;32779;52.264;6.154;2023-04-24T02:14:38;4.90;;;4.22;;
47021;SDS011;32779;52.264;6.154;2023-04-24T02:17:04;4.60;;;4.20;;
47021;SDS011;32779;52.264;6.154;2023-04-24T02:19:30;4.63;;;3.95;;
47021;SDS011;32779;52.264;6.154;2023-04-24T02:21:55;4.88;;;3.78;;
47021;SDS011;32779;52.264;6.154;2023-04-24T02:24:21;4.15;;;3.70;;
47021;SDS011;32779;52.264;6.154;2023-04-24T02:26:47;4.15;;;3.70;;
47021;SDS011;32779;52.264;6.154;2023-04-24T02:29:12;4.05;;;3.67;;
47021;SDS011;32779;52.264;6.154;2023-04-24T02:31:38;4.18;;;3.78;;
47021;SDS011;32779;52.264;6.154;2023-04-24T02:34:03;5.78;;;4.45;;
47021;SDS011;32779;52.264;6.154;2023-04-24T02:36:29;4.07;;;3.67;;
47021;SDS011;32779;52.264;6.154;2023-04-24T02:38:55;4.20;;;3.58;;
47021;SDS011;32779;52.264;6.154;2023-04-24T02:41:20;5.43;;;3.78;;
47021;SDS011;32779;52.264;6.154;2023-04-24T02:43:46;5.13;;;3.72;;
47021;SDS011;32779;52.264;6.154;2023-04-24T02:46:12;5.18;;;4.55;;
47021;SDS011;32779;52.264;6.154;2023-04-24T02:48:37;5.22;;;4.18;;
47021;SDS011;32779;52.264;6.154;2023-04-24T02:51:03;4.80;;;3.85;;
47021;SDS011;32779;52.264;6.154;2023-04-24T02:53:29;4.53;;;4.13;;
47021;SDS011;32779;52.264;6.154;2023-04-24T02:55:55;4.80;;;4.30;;
47021;SDS011;32779;52.264;6.154;2023-04-24T02:58:21;4.82;;;4.35;;
47021;SDS011;32779;52.264;6.154;2023-04-24T03:00:47;4.80;;;4.40;;
47021;SDS011;32779;52.264;6.154;2023-04-24T03:03:13;5.38;;;4.88;;
47021;SDS011;32779;52.264;6.154;2023-04-24T03:05:39;5.30;;;4.82;;
47021;SDS011;32779;52.264;6.154;2023-04-24T03:08:04;4.97;;;4.57;;
47021;SDS011;32779;52.264;6.154;2023-04-24T03:12:57;5.53;;;4.70;;
47021;SDS011;32779;52.264;6.154;2023-04-24T03:15:22;5.05;;;4.20;;
47021;SDS011;32779;52.264;6.154;2023-04-24T03:17:48;4.75;;;4.18;;
47021;SDS011;32779;52.264;6.154;2023-04-24T03:20:13;4.88;;;4.40;;
47021;SDS011;32779;52.264;6.154;2023-04-24T03:22:39;5.05;;;4.55;;
47021;SDS011;32779;52.264;6.154;2023-04-24T03:25:05;6.85;;;4.70;;
47021;SDS011;32779;52.264;6.154;2023-04-24T03:27:31;5.05;;;4.65;;
47021;SDS011;32779;52.264;6.154;2023-04-24T03:29:57;4.50;;;4.13;;
47021;SDS011;32779;52.264;6.154;2023-04-24T03:32:22;4.82;;;4.20;;
47021;SDS011;32779;52.264;6.154;2023-04-24T03:34:48;4.07;;;3.42;;
47021;SDS011;32779;52.264;6.154;2023-04-24T03:37:15;3.60;;;3.30;;
47021;SDS011;32779;52.264;6.154;2023-04-24T03:39:41;3.75;;;3.45;;
47021;SDS011;32779;52.264;6.154;2023-04-24T03:42:07;3.28;;;2.90;;
47021;SDS011;32779;52.264;6.154;2023-04-24T03:44:33;2.80;;;2.60;;
47021;SDS011;32779;52.264;6.154;2023-04-24T03:49:25;4.65;;;2.80;;
47021;SDS011;32779;52.264;6.154;2023-04-24T03:51:51;2.70;;;2.28;;
47021;SDS011;32779;52.264;6.154;2023-04-24T03:54:17;3.33;;;2.80;;
47021;SDS011;32779;52.264;6.154;2023-04-24T03:56:43;4.20;;;2.65;;
47021;SDS011;32779;52.264;6.154;2023-04-24T03:59:09;2.80;;;2.60;;
47021;SDS011;32779;52.264;6.154;2023-04-24T04:01:35;4.13;;;3.25;;
47021;SDS011;32779;52.264;6.154;2023-04-24T04:04:04;3.88;;;3.05;;
47021;SDS011;32779;52.264;6.154;2023-04-24T04:06:30;3.78;;;2.47;;
47021;SDS011;32779;52.264;6.154;2023-04-24T04:08:56;3.33;;;3.03;;
47021;SDS011;32779;52.264;6.154;2023-04-24T04:13:47;3.30;;;2.97;;
47021;SDS011;32779;52.264;6.154;2023-04-24T04:16:13;4.40;;;2.40;;
47021;SDS011;32779;52.264;6.154;2023-04-24T04:18:42;2.97;;;2.53;;
47021;SDS011;32779;52.264;6.154;2023-04-24T04:21:08;2.08;;;1.88;;
47021;SDS011;32779;52.264;6.154;2023-04-24T04:23:33;3.35;;;2.53;;
47021;SDS011;32779;52.264;6.154;2023-04-24T04:25:59;2.55;;;2.35;;
47021;SDS011;32779;52.264;6.154;2023-04-24T04:28:25;4.47;;;3.08;;
47021;SDS011;32779;52.264;6.154;2023-04-24T04:30:51;3.47;;;3.17;;
47021;SDS011;32779;52.264;6.154;2023-04-24T04:33:19;3.65;;;3.35;;
47021;SDS011;32779;52.264;6.154;2023-04-24T04:35:45;4.40;;;4.07;;
47021;SDS011;32779;52.264;6.154;2023-04-24T04:38:13;4.57;;;3.88;;
47021;SDS011;32779;52.264;6.154;2023-04-24T04:40:40;4.47;;;3.92;;
47021;SDS011;32779;52.264;6.154;2023-04-24T04:45:31;5.85;;;4.40;;
47021;SDS011;32779;52.264;6.154;2023-04-24T04:47:59;4.55;;;4.15;;
47021;SDS011;32779;52.264;6.154;2023-04-24T04:50:28;4.97;;;4.45;;
47021;SDS011;32779;52.264;6.154;2023-04-24T04:52:54;4.97;;;4.47;;
47021;SDS011;32779;52.264;6.154;2023-04-24T04:55:19;6.07;;;5.18;;
47021;SDS011;32779;52.264;6.154;2023-04-24T04:57:48;6.88;;;5.88;;
47021;SDS011;32779;52.264;6.154;2023-04-24T05:00:14;7.25;;;6.40;;
47021;SDS011;32779;52.264;6.154;2023-04-24T05:02:40;9.38;;;7.03;;
47021;SDS011;32779;52.264;6.154;2023-04-24T05:05:06;9.38;;;7.40;;
47021;SDS011;32779;52.264;6.154;2023-04-24T05:07:32;9.40;;;7.70;;
47021;SDS011;32779;52.264;6.154;2023-04-24T05:09:58;10.40;;;7.50;;
47021;SDS011;32779;52.264;6.154;2023-04-24T05:12:23;8.25;;;7.28;;
47021;SDS011;32779;52.264;6.154;2023-04-24T05:14:49;8.13;;;6.80;;
47021;SDS011;32779;52.264;6.154;2023-04-24T05:17:15;7.00;;;6.20;;
47021;SDS011;32779;52.264;6.154;2023-04-24T05:22:06;7.85;;;5.95;;
47021;SDS011;32779;52.264;6.154;2023-04-24T05:24:33;7.35;;;5.82;;
47021;SDS011;32779;52.264;6.154;2023-04-24T05:26:59;5.53;;;4.88;;
47021;SDS011;32779;52.264;6.154;2023-04-24T05:29:24;5.53;;;5.03;;
47021;SDS011;32779;52.264;6.154;2023-04-24T05:31:51;6.10;;;4.97;;
47021;SDS011;32779;52.264;6.154;2023-04-24T05:34:17;4.30;;;3.90;;
47021;SDS011;32779;52.264;6.154;2023-04-24T05:36:43;5.75;;;4.53;;
47021;SDS011;32779;52.264;6.154;2023-04-24T05:39:09;4.55;;;3.60;;
47021;SDS011;32779;52.264;6.154;2023-04-24T05:41:34;3.45;;;3.10;;
47021;SDS011;32779;52.264;6.154;2023-04-24T05:44:00;5.05;;;2.88;;
47021;SDS011;32779;52.264;6.154;2023-04-24T05:46:25;2.60;;;2.40;;
47021;SDS011;32779;52.264;6.154;2023-04-24T05:48:51;4.47;;;2.90;;
47021;SDS011;32779;52.264;6.154;2023-04-24T05:51:17;2.65;;;2.03;;
47021;SDS011;32779;52.264;6.154;2023-04-24T05:53:42;2.88;;;2.22;;
47021;SDS011;32779;52.264;6.154;2023-04-24T05:56:08;3.28;;;2.58;;
47021;SDS011;32779;52.264;6.154;2023-04-24T05:58:34;3.65;;;2.25;;
47021;SDS011;32779;52.264;6.154;2023-04-24T06:00:59;2.72;;;2.03;;
47021;SDS011;32779;52.264;6.154;2023-04-24T06:03:26;2.55;;;2.35;;
47021;SDS011;32779;52.264;6.154;2023-04-24T06:05:52;2.90;;;1.95;;
47021;SDS011;32779;52.264;6.154;2023-04-24T06:08:18;2.35;;;1.90;;
47021;SDS011;32779;52.264;6.154;2023-04-24T06:10:44;3.67;;;2.10;;
47021;SDS011;32779;52.264;6.154;2023-04-24T06:13:10;3.25;;;1.75;;
47021;SDS011;32779;52.264;6.154;2023-04-24T06:15:36;2.45;;;1.63;;
47021;SDS011;32779;52.264;6.154;2023-04-24T06:18:02;2.70;;;2.00;;
47021;SDS011;32779;52.264;6.154;2023-04-24T06:20:28;2.65;;;1.63;;
47021;SDS011;32779;52.264;6.154;2023-04-24T06:22:54;2.10;;;1.30;;
47021;SDS011;32779;52.264;6.154;2023-04-24T06:25:19;3.05;;;1.10;;
47021;SDS011;32779;52.264;6.154;2023-04-24T06:27:45;2.47;;;1.55;;
47021;SDS011;32779;52.264;6.154;2023-04-24T06:30:11;1.38;;;1.20;;
47021;SDS011;32779;52.264;6.154;2023-04-24T06:32:37;1.75;;;1.50;;
47021;SDS011;32779;52.264;6.154;2023-04-24T06:35:03;2.40;;;1.63;;
47021;SDS011;32779;52.264;6.154;2023-04-24T06:37:29;2.85;;;1.52;;
47021;SDS011;32779;52.264;6.154;2023-04-24T06:39:54;2.97;;;1.70;;
47021;SDS011;32779;52.264;6.154;2023-04-24T06:42:20;1.50;;;1.40;;
47021;SDS011;32779;52.264;6.154;2023-04-24T06:44:46;1.80;;;1.52;;
47021;SDS011;32779;52.264;6.154;2023-04-24T06:47:12;2.40;;;1.60;;
47021;SDS011;32779;52.264;6.154;2023-04-24T06:49:38;2.08;;;1.60;;
47021;SDS011;32779;52.264;6.154;2023-04-24T06:54:30;3.17;;;1.55;;
47021;SDS011;32779;52.264;6.154;2023-04-24T06:56:56;1.77;;;1.38;;
47021;SDS011;32779;52.264;6.154;2023-04-24T06:59:23;1.80;;;1.70;;
47021;SDS011;32779;52.264;6.154;2023-04-24T07:01:49;2.55;;;2.08;;
47021;SDS011;32779;52.264;6.154;2023-04-24T07:04:16;2.55;;;2.08;;
47021;SDS011;32779;52.264;6.154;2023-04-24T07:06:41;2.72;;;2.42;;
47021;SDS011;32779;52.264;6.154;2023-04-24T07:09:08;4.22;;;2.45;;
47021;SDS011;32779;52.264;6.154;2023-04-24T07:14:01;2.70;;;2.50;;
47021;SDS011;32779;52.264;6.154;2023-04-24T07:16:27;4.22;;;2.63;;
47021;SDS011;32779;52.264;6.154;2023-04-24T07:18:54;4.93;;;2.63;;
47021;SDS011;32779;52.264;6.154;2023-04-24T07:21:19;3.25;;;2.95;;
47021;SDS011;32779;52.264;6.154;2023-04-24T07:23:45;2.75;;;2.50;;
47021;SDS011;32779;52.264;6.154;2023-04-24T07:26:10;3.35;;;2.92;;
47021;SDS011;32779;52.264;6.154;2023-04-24T07:28:36;2.92;;;2.08;;
47021;SDS011;32779;52.264;6.154;2023-04-24T07:31:02;2.65;;;2.20;;
47021;SDS011;32779;52.264;6.154;2023-04-24T07:33:27;2.85;;;2.42;;
47021;SDS011;32779;52.264;6.154;2023-04-24T07:35:53;2.72;;;2.40;;
47021;SDS011;32779;52.264;6.154;2023-04-24T07:38:19;3.15;;;2.85;;
47021;SDS011;32779;52.264;6.154;2023-04-24T07:40:47;5.10;;;2.58;;
47021;SDS011;32779;52.264;6.154;2023-04-24T07:45:39;3.70;;;2.67;;
47021;SDS011;32779;52.264;6.154;2023-04-24T07:48:05;2.35;;;2.15;;
47021;SDS011;32779;52.264;6.154;2023-04-24T07:50:31;2.10;;;1.90;;
47021;SDS011;32779;52.264;6.154;2023-04-24T07:52:57;3.33;;;2.53;;
47021;SDS011;32779;52.264;6.154;2023-04-24T07:55:22;3.72;;;2.28;;
47021;SDS011;32779;52.264;6.154;2023-04-24T07:57:48;3.85;;;2.22;;
47021;SDS011;32779;52.264;6.154;2023-04-24T08:00:14;4.40;;;2.80;;
47021;SDS011;32779;52.264;6.154;2023-04-24T08:02:40;2.60;;;2.40;;
47021;SDS011;32779;52.264;6.154;2023-04-24T08:05:06;5.57;;;3.25;;
47021;SDS011;32779;52.264;6.154;2023-04-24T08:09:58;5.82;;;3.92;;
47021;SDS011;32779;52.264;6.154;2023-04-24T08:12:24;12.15;;;4.40;;
47021;SDS011;32779;52.264;6.154;2023-04-24T08:14:50;6.40;;;5.00;;
47021;SDS011;32779;52.264;6.154;2023-04-24T08:17:16;13.02;;;6.72;;
47021;SDS011;32779;52.264;6.154;2023-04-24T08:19:42;9.82;;;6.88;;
47021;SDS011;32779;52.264;6.154;2023-04-24T08:22:12;10.15;;;7.18;;
47021;SDS011;32779;52.264;6.154;2023-04-24T08:24:38;10.25;;;7.18;;
47021;SDS011;32779;52.264;6.154;2023-04-24T08:27:03;13.00;;;7.85;;
47021;SDS011;32779;52.264;6.154;2023-04-24T08:29:29;11.15;;;7.63;;
47021;SDS011;32779;52.264;6.154;2023-04-24T08:31:55;12.35;;;7.55;;
47021;SDS011;32779;52.264;6.154;2023-04-24T08:34:21;16.33;;;8.68;;
47021;SDS011;32779;52.264;6.154;2023-04-24T08:39:12;11.82;;;8.02;;
47021;SDS011;32779;52.264;6.154;2023-04-24T08:41:38;14.95;;;9.02;;
47021;SDS011;32779;52.264;6.154;2023-04-24T08:44:07;17.13;;;9.65;;
47021;SDS011;32779;52.264;6.154;2023-04-24T08:46:34;21.05;;;10.60;;
47021;SDS011;32779;52.264;6.154;2023-04-24T08:51:27;20.33;;;9.87;;
47021;SDS011;32779;52.264;6.154;2023-04-24T08:53:53;16.73;;;9.48;;
47021;SDS011;32779;52.264;6.154;2023-04-24T08:58:48;19.20;;;9.32;;
47021;SDS011;32779;52.264;6.154;2023-04-24T09:01:20;17.80;;;9.65;;
47021;SDS011;32779;52.264;6.154;2023-04-24T09:03:48;17.50;;;9.07;;
47021;SDS011;32779;52.264;6.154;2023-04-24T09:06:14;14.02;;;8.25;;
47021;SDS011;32779;52.264;6.154;2023-04-24T09:08:42;12.02;;;8.02;;
47021;SDS011;32779;52.264;6.154;2023-04-24T09:11:10;16.85;;;8.57;;
47021;SDS011;32779;52.264;6.154;2023-04-24T09:13:36;13.90;;;8.43;;
47021;SDS011;32779;52.264;6.154;2023-04-24T09:16:03;22.55;;;9.65;;
47021;SDS011;32779;52.264;6.154;2023-04-24T09:18:29;19.95;;;9.23;;
47021;SDS011;32779;52.264;6.154;2023-04-24T09:23:32;14.43;;;8.18;;
47021;SDS011;32779;52.264;6.154;2023-04-24T09:25:58;17.05;;;8.48;;
47021;SDS011;32779;52.264;6.154;2023-04-24T09:28:32;16.08;;;7.88;;
47021;SDS011;32779;52.264;6.154;2023-04-24T09:31:11;12.00;;;7.22;;
47021;SDS011;32779;52.264;6.154;2023-04-24T09:33:39;12.25;;;7.47;;
47021;SDS011;32779;52.264;6.154;2023-04-24T09:36:05;12.13;;;7.22;;
47021;SDS011;32779;52.264;6.154;2023-04-24T09:38:37;13.05;;;6.93;;
47021;SDS011;32779;52.264;6.154;2023-04-24T09:41:07;11.90;;;7.20;;
47021;SDS011;32779;52.264;6.154;2023-04-24T09:43:33;13.95;;;6.75;;
47021;SDS011;32779;52.264;6.154;2023-04-24T09:46:04;14.43;;;6.35;;
47021;SDS011;32779;52.264;6.154;2023-04-24T09:48:32;15.88;;;6.15;;
47021;SDS011;32779;52.264;6.154;2023-04-24T09:50:59;15.43;;;6.05;;
47021;SDS011;32779;52.264;6.154;2023-04-24T09:53:31;12.38;;;4.72;;
47021;SDS011;32779;52.264;6.154;2023-04-24T09:56:06;9.20;;;4.03;;
47021;SDS011;32779;52.264;6.154;2023-04-24T10:01:00;8.90;;;3.55;;
47021;SDS011;32779;52.264;6.154;2023-04-24T10:03:27;9.80;;;3.70;;
47021;SDS011;32779;52.264;6.154;2023-04-24T10:05:58;11.15;;;3.60;;
47021;SDS011;32779;52.264;6.154;2023-04-24T10:08:24;11.23;;;3.78;;
47021;SDS011;32779;52.264;6.154;2023-04-24T10:10:51;12.80;;;2.92;;
47021;SDS011;32779;52.264;6.154;2023-04-24T10:15:43;10.80;;;3.03;;
47021;SDS011;32779;52.264;6.154;2023-04-24T10:18:09;15.77;;;3.85;;
47021;SDS011;32779;52.264;6.154;2023-04-24T10:20:36;16.63;;;3.35;;
47021;SDS011;32779;52.264;6.154;2023-04-24T10:23:06;14.85;;;4.22;;
47021;SDS011;32779;52.264;6.154;2023-04-24T10:25:33;23.45;;;4.85;;
47021;SDS011;32779;52.264;6.154;2023-04-24T10:28:00;19.63;;;4.45;;
47021;SDS011;32779;52.264;6.154;2023-04-24T10:30:27;17.02;;;3.75;;
47021;SDS011;32779;52.264;6.154;2023-04-24T10:32:54;25.13;;;4.57;;
47021;SDS011;32779;52.264;6.154;2023-04-24T10:35:23;22.50;;;4.68;;
47021;SDS011;32779;52.264;6.154;2023-04-24T10:37:54;14.60;;;3.00;;
47021;SDS011;32779;52.264;6.154;2023-04-24T10:40:27;17.88;;;3.85;;
47021;SDS011;32779;52.264;6.154;2023-04-24T10:42:56;22.75;;;2.92;;
47021;SDS011;32779;52.264;6.154;2023-04-24T10:45:22;12.23;;;2.92;;
47021;SDS011;32779;52.264;6.154;2023-04-24T10:47:52;15.13;;;2.55;;
47021;SDS011;32779;52.264;6.154;2023-04-24T10:50:21;13.07;;;2.45;;
47021;SDS011;32779;52.264;6.154;2023-04-24T10:52:47;18.60;;;3.25;;
47021;SDS011;32779;52.264;6.154;2023-04-24T10:55:16;17.73;;;2.58;;
47021;SDS011;32779;52.264;6.154;2023-04-24T10:58:02;7.82;;;2.03;;
47021;SDS011;32779;52.264;6.154;2023-04-24T11:00:28;11.88;;;2.17;;
47021;SDS011;32779;52.264;6.154;2023-04-24T11:02:54;10.10;;;2.58;;
47021;SDS011;32779;52.264;6.154;2023-04-24T11:10:45;15.32;;;2.80;;
47021;SDS011;32779;52.264;6.154;2023-04-24T11:13:21;11.02;;;2.25;;
47021;SDS011;32779;52.264;6.154;2023-04-24T11:18:41;9.57;;;1.98;;
47021;SDS011;32779;52.264;6.154;2023-04-24T11:21:15;11.07;;;2.25;;
47021;SDS011;32779;52.264;6.154;2023-04-24T11:23:42;9.05;;;2.63;;
47021;SDS011;32779;52.264;6.154;2023-04-24T11:26:11;10.52;;;2.45;;
47021;SDS011;32779;52.264;6.154;2023-04-24T11:28:40;17.83;;;2.97;;
47021;SDS011;32779;52.264;6.154;2023-04-24T11:34:06;9.65;;;2.60;;
47021;SDS011;32779;52.264;6.154;2023-04-24T11:36:37;17.63;;;2.65;;
47021;SDS011;32779;52.264;6.154;2023-04-24T11:41:29;11.05;;;2.50;;
47021;SDS011;32779;52.264;6.154;2023-04-24T11:43:55;12.35;;;2.63;;
47021;SDS011;32779;52.264;6.154;2023-04-24T11:46:21;16.02;;;2.95;;
47021;SDS011;32779;52.264;6.154;2023-04-24T11:48:47;18.00;;;3.03;;
47021;SDS011;32779;52.264;6.154;2023-04-24T11:51:13;12.45;;;2.38;;
47021;SDS011;32779;52.264;6.154;2023-04-24T11:56:04;6.53;;;1.60;;
47021;SDS011;32779;52.264;6.154;2023-04-24T11:58:37;8.00;;;1.77;;
47021;SDS011;32779;52.264;6.154;2023-04-24T12:01:04;6.38;;;2.28;;
47021;SDS011;32779;52.264;6.154;2023-04-24T12:06:05;11.65;;;3.97;;
47021;SDS011;32779;52.264;6.154;2023-04-24T12:10:59;7.68;;;1.15;;
47021;SDS011;32779;52.264;6.154;2023-04-24T12:13:26;7.38;;;1.67;;
47021;SDS011;32779;52.264;6.154;2023-04-24T12:15:52;4.70;;;1.13;;
47021;SDS011;32779;52.264;6.154;2023-04-24T12:18:17;5.07;;;1.38;;
47021;SDS011;32779;52.264;6.154;2023-04-24T12:20:43;8.55;;;1.40;;
47021;SDS011;32779;52.264;6.154;2023-04-24T12:23:09;4.22;;;1.25;;
47021;SDS011;32779;52.264;6.154;2023-04-24T12:25:34;4.90;;;1.42;;
47021;SDS011;32779;52.264;6.154;2023-04-24T12:30:29;8.25;;;1.25;;
47021;SDS011;32779;52.264;6.154;2023-04-24T12:32:57;8.57;;;1.88;;
47021;SDS011;32779;52.264;6.154;2023-04-24T12:35:25;6.75;;;2.10;;
47021;SDS011;32779;52.264;6.154;2023-04-24T12:37:59;5.78;;;1.13;;
47021;SDS011;32779;52.264;6.154;2023-04-24T12:40:33;5.68;;;1.02;;
47021;SDS011;32779;52.264;6.154;2023-04-24T12:42:59;6.70;;;1.25;;
47021;SDS011;32779;52.264;6.154;2023-04-24T12:45:24;2.78;;;1.10;;
47021;SDS011;32779;52.264;6.154;2023-04-24T12:47:52;5.93;;;1.55;;
47021;SDS011;32779;52.264;6.154;2023-04-24T12:50:18;5.22;;;3.20;;
47021;SDS011;32779;52.264;6.154;2023-04-24T12:52:44;7.82;;;3.75;;
47021;SDS011;32779;52.264;6.154;2023-04-24T12:55:10;5.15;;;1.40;;
47021;SDS011;32779;52.264;6.154;2023-04-24T12:57:37;5.20;;;1.23;;
47021;SDS011;32779;52.264;6.154;2023-04-24T13:00:04;4.53;;;1.23;;
47021;SDS011;32779;52.264;6.154;2023-04-24T13:02:31;3.55;;;0.80;;
47021;SDS011;32779;52.264;6.154;2023-04-24T13:04:57;5.07;;;1.05;;
47021;SDS011;32779;52.264;6.154;2023-04-24T13:07:24;2.17;;;0.63;;
47021;SDS011;32779;52.264;6.154;2023-04-24T13:09:50;4.10;;;0.90;;
47021;SDS011;32779;52.264;6.154;2023-04-24T13:12:17;6.68;;;0.85;;
47021;SDS011;32779;52.264;6.154;2023-04-24T13:17:08;8.75;;;0.82;;
47021;SDS011;32779;52.264;6.154;2023-04-24T13:19:36;6.15;;;1.10;;
47021;SDS011;32779;52.264;6.154;2023-04-24T13:22:03;3.67;;;0.82;;
47021;SDS011;32779;52.264;6.154;2023-04-24T13:24:29;3.67;;;1.55;;
47021;SDS011;32779;52.264;6.154;2023-04-24T13:26:56;3.00;;;0.90;;
47021;SDS011;32779;52.264;6.154;2023-04-24T13:29:21;5.35;;;1.00;;
47021;SDS011;32779;52.264;6.154;2023-04-24T13:31:49;4.22;;;0.80;;
47021;SDS011;32779;52.264;6.154;2023-04-24T13:34:16;5.35;;;1.20;;
47021;SDS011;32779;52.264;6.154;2023-04-24T13:36:42;2.83;;;0.90;;
47021;SDS011;32779;52.264;6.154;2023-04-24T13:39:07;3.72;;;1.17;;
47021;SDS011;32779;52.264;6.154;2023-04-24T13:41:33;2.63;;;0.80;;
47021;SDS011;32779;52.264;6.154;2023-04-24T13:43:59;3.95;;;0.77;;
47021;SDS011;32779;52.264;6.154;2023-04-24T13:48:51;4.30;;;1.30;;
47021;SDS011;32779;52.264;6.154;2023-04-24T13:51:17;4.15;;;1.20;;
47021;SDS011;32779;52.264;6.154;2023-04-24T13:53:43;6.38;;;1.50;;
47021;SDS011;32779;52.264;6.154;2023-04-24T13:56:08;2.88;;;1.00;;
47021;SDS011;32779;52.264;6.154;2023-04-24T13:58:34;6.43;;;1.50;;
47021;SDS011;32779;52.264;6.154;2023-04-24T14:01:02;6.95;;;1.90;;
47021;SDS011;32779;52.264;6.154;2023-04-24T14:03:28;9.10;;;1.90;;
47021;SDS011;32779;52.264;6.154;2023-04-24T14:05:54;7.75;;;1.58;;
47021;SDS011;32779;52.264;6.154;2023-04-24T14:08:20;6.28;;;1.67;;
47021;SDS011;32779;52.264;6.154;2023-04-24T14:10:45;10.48;;;1.85;;
47021;SDS011;32779;52.264;6.154;2023-04-24T14:13:11;10.00;;;2.30;;
47021;SDS011;32779;52.264;6.154;2023-04-24T14:15:37;8.93;;;2.10;;
47021;SDS011;32779;52.264;6.154;2023-04-24T14:18:03;6.30;;;1.85;;
47021;SDS011;32779;52.264;6.154;2023-04-24T14:20:28;7.75;;;1.48;;
47021;SDS011;32779;52.264;6.154;2023-04-24T14:22:54;8.23;;;2.13;;
47021;SDS011;32779;52.264;6.154;2023-04-24T14:25:19;8.52;;;1.77;;
47021;SDS011;32779;52.264;6.154;2023-04-24T14:27:47;10.32;;;2.20;;
47021;SDS011;32779;52.264;6.154;2023-04-24T14:30:12;11.30;;;2.50;;
47021;SDS011;32779;52.264;6.154;2023-04-24T14:32:39;12.63;;;3.28;;
47021;SDS011;32779;52.264;6.154;2023-04-24T14:35:05;9.32;;;2.55;;
47021;SDS011;32779;52.264;6.154;2023-04-24T14:37:31;13.18;;;2.60;;
47021;SDS011;32779;52.264;6.154;2023-04-24T14:39:57;12.95;;;2.50;;
47021;SDS011;32779;52.264;6.154;2023-04-24T14:42:23;13.73;;;3.17;;
47021;SDS011;32779;52.264;6.154;2023-04-24T14:44:48;12.60;;;2.50;;
47021;SDS011;32779;52.264;6.154;2023-04-24T14:47:14;10.82;;;2.72;;
47021;SDS011;32779;52.264;6.154;2023-04-24T14:49:42;14.82;;;2.72;;
47021;SDS011;32779;52.264;6.154;2023-04-24T14:52:08;11.13;;;2.95;;
47021;SDS011;32779;52.264;6.154;2023-04-24T14:57:02;14.60;;;3.30;;
47021;SDS011;32779;52.264;6.154;2023-04-24T14:59:27;9.98;;;2.67;;
47021;SDS011;32779;52.264;6.154;2023-04-24T15:04:23;14.13;;;3.10;;
47021;SDS011;32779;52.264;6.154;2023-04-24T15:06:50;11.43;;;2.15;;
47021;SDS011;32779;52.264;6.154;2023-04-24T15:09:16;9.23;;;2.40;;
47021;SDS011;32779;52.264;6.154;2023-04-24T15:11:42;5.60;;;2.15;;
47021;SDS011;32779;52.264;6.154;2023-04-24T15:14:07;8.02;;;2.53;;
47021;SDS011;32779;52.264;6.154;2023-04-24T15:16:33;7.07;;;2.15;;
47021;SDS011;32779;52.264;6.154;2023-04-24T15:18:58;9.07;;;2.10;;
47021;SDS011;32779;52.264;6.154;2023-04-24T15:21:24;10.25;;;2.28;;
47021;SDS011;32779;52.264;6.154;2023-04-24T15:26:16;10.20;;;1.90;;
47021;SDS011;32779;52.264;6.154;2023-04-24T15:28:42;7.68;;;1.92;;
47021;SDS011;32779;52.264;6.154;2023-04-24T15:31:07;8.00;;;2.95;;
47021;SDS011;32779;52.264;6.154;2023-04-24T15:33:33;11.23;;;2.25;;
47021;SDS011;32779;52.264;6.154;2023-04-24T15:35:59;11.48;;;2.50;;
47021;SDS011;32779;52.264;6.154;2023-04-24T15:38:25;9.25;;;2.20;;
47021;SDS011;32779;52.264;6.154;2023-04-24T15:40:50;8.57;;;2.00;;
47021;SDS011;32779;52.264;6.154;2023-04-24T15:43:16;11.60;;;2.28;;
47021;SDS011;32779;52.264;6.154;2023-04-24T15:45:42;6.85;;;2.03;;
47021;SDS011;32779;52.264;6.154;2023-04-24T15:48:08;6.35;;;2.00;;
47021;SDS011;32779;52.264;6.154;2023-04-24T15:50:34;14.55;;;2.90;;
47021;SDS011;32779;52.264;6.154;2023-04-24T15:52:59;8.27;;;2.30;;
47021;SDS011;32779;52.264;6.154;2023-04-24T15:55:25;10.15;;;3.05;;
47021;SDS011;32779;52.264;6.154;2023-04-24T15:57:52;16.23;;;2.63;;
47021;SDS011;32779;52.264;6.154;2023-04-24T16:00:18;8.98;;;2.13;;
47021;SDS011;32779;52.264;6.154;2023-04-24T16:02:45;7.13;;;1.98;;
47021;SDS011;32779;52.264;6.154;2023-04-24T16:05:10;8.52;;;2.70;;
47021;SDS011;32779;52.264;6.154;2023-04-24T16:07:36;12.95;;;3.22;;
47021;SDS011;32779;52.264;6.154;2023-04-24T16:10:03;9.55;;;2.90;;